sensor_id;sensor_type;location;lat;lon;timestamp;pressure;altitude;pressure_sealevel;temperature;humidity
65394;BME280;52002;49.760;6.512;2024-02-21T00:00:49;100996.02;;;8.21;78.48
65394;BME280;52002;49.760;6.512;2024-02-21T00:03:15;100990.86;;;8.21;78.84
65394;BME280;52002;49.760;6.512;2024-02-21T00:05:40;100998.59;;;8.23;78.92
65394;BME280;52002;49.760;6.512;2024-02-21T00:08:06;100988.77;;;8.24;78.79
65394;BME280;52002;49.760;6.512;2024-02-21T00:10:31;100986.65;;;8.24;78.62
65394;BME280;52002;49.760;6.512;2024-02-21T00:12:58;100980.23;;;8.21;78.54
65394;BME280;52002;49.760;6.512;2024-02-21T00:15:25;100969.70;;;8.19;78.66
65394;BME280;52002;49.760;6.512;2024-02-21T00:17:51;100965.56;;;8.18;78.67
65394;BME280;52002;49.760;6.512;2024-02-21T00:20:16;100961.03;;;8.17;78.79
65394;BME280;52002;49.760;6.512;2024-02-21T00:22:43;100953.56;;;8.16;78.81
65394;BME280;52002;49.760;6.512;2024-02-21T00:25:09;100948.02;;;8.18;78.94
65394;BME280;52002;49.760;6.512;2024-02-21T00:27:35;100952.01;;;8.19;79.02
65394;BME280;52002;49.760;6.512;2024-02-21T00:30:00;100951.41;;;8.17;78.96
65394;BME280;52002;49.760;6.512;2024-02-21T00:32:26;100936.73;;;8.17;79.07
65394;BME280;52002;49.760;6.512;2024-02-21T00:34:51;100934.73;;;8.18;79.07
65394;BME280;52002;49.760;6.512;2024-02-21T00:37:17;100936.45;;;8.18;79.19
65394;BME280;52002;49.760;6.512;2024-02-21T00:39:42;100944.16;;;8.17;79.03
65394;BME280;52002;49.760;6.512;2024-02-21T00:42:08;100940.71;;;8.15;78.91
65394;BME280;52002;49.760;6.512;2024-02-21T00:44:33;100931.36;;;8.14;78.88
65394;BME280;52002;49.760;6.512;2024-02-21T00:46:58;100935.94;;;8.15;79.28
65394;BME280;52002;49.760;6.512;2024-02-21T00:49:24;100941.41;;;8.16;79.18
65394;BME280;52002;49.760;6.512;2024-02-21T00:51:49;100941.89;;;8.14;79.13
65394;BME280;52002;49.760;6.512;2024-02-21T00:54:15;100933.91;;;8.11;78.88
65394;BME280;52002;49.760;6.512;2024-02-21T00:56:41;100927.91;;;8.07;78.97
65394;BME280;52002;49.760;6.512;2024-02-21T00:59:07;100917.03;;;8.05;79.01
65394;BME280;52002;49.760;6.512;2024-02-21T01:01:32;100911.21;;;8.02;79.21
65394;BME280;52002;49.760;6.512;2024-02-21T01:03:57;100904.40;;;8.00;79.27
65394;BME280;52002;49.760;6.512;2024-02-21T01:06:23;100903.02;;;7.97;79.29
65394;BME280;52002;49.760;6.512;2024-02-21T01:08:48;100897.50;;;7.95;79.12
65394;BME280;52002;49.760;6.512;2024-02-21T01:11:14;100893.39;;;7.93;79.23
65394;BME280;52002;49.760;6.512;2024-02-21T01:13:40;100883.19;;;7.91;79.25
65394;BME280;52002;49.760;6.512;2024-02-21T01:16:06;100882.96;;;7.89;79.51
65394;BME280;52002;49.760;6.512;2024-02-21T01:18:34;100885.20;;;7.87;79.47
65394;BME280;52002;49.760;6.512;2024-02-21T01:21:02;100901.11;;;7.88;79.56
65394;BME280;52002;49.760;6.512;2024-02-21T01:23:28;100903.69;;;7.89;79.79
65394;BME280;52002;49.760;6.512;2024-02-21T01:25:53;100904.48;;;7.91;80.12
65394;BME280;52002;49.760;6.512;2024-02-21T01:28:20;100912.58;;;7.92;79.81
65394;BME280;52002;49.760;6.512;2024-02-21T01:30:45;100909.22;;;7.94;80.04
65394;BME280;52002;49.760;6.512;2024-02-21T01:33:11;100911.09;;;7.96;80.00
65394;BME280;52002;49.760;6.512;2024-02-21T01:35:36;100913.36;;;7.96;79.95
65394;BME280;52002;49.760;6.512;2024-02-21T01:38:02;100913.15;;;7.97;79.96
65394;BME280;52002;49.760;6.512;2024-02-21T01:40:27;100903.16;;;7.98;79.86
65394;BME280;52002;49.760;6.512;2024-02-21T01:42:55;100902.34;;;7.99;79.96
65394;BME280;52002;49.760;6.512;2024-02-21T01:45:20;100898.86;;;7.98;79.85
65394;BME280;52002;49.760;6.512;2024-02-21T01:47:47;100897.84;;;7.98;79.85
65394;BME280;52002;49.760;6.512;2024-02-21T01:50:14;100894.29;;;7.98;79.77
65394;BME280;52002;49.760;6.512;2024-02-21T01:52:42;100882.38;;;7.98;79.85
65394;BME280;52002;49.760;6.512;2024-02-21T01:55:09;100876.17;;;7.98;79.80
65394;BME280;52002;49.760;6.512;2024-02-21T01:57:36;100869.23;;;7.99;79.93
65394;BME280;52002;49.760;6.512;2024-02-21T02:00:02;100861.80;;;7.99;79.65
65394;BME280;52002;49.760;6.512;2024-02-21T02:02:28;100845.16;;;7.98;79.58
65394;BME280;52002;49.760;6.512;2024-02-21T02:04:54;100833.91;;;7.97;79.74
65394;BME280;52002;49.760;6.512;2024-02-21T02:07:20;100825.48;;;7.96;79.55
65394;BME280;52002;49.760;6.512;2024-02-21T02:09:45;100836.17;;;7.92;79.33
65394;BME280;52002;49.760;6.512;2024-02-21T02:12:11;100832.64;;;7.89;79.38
65394;BME280;52002;49.760;6.512;2024-02-21T02:14:36;100826.02;;;7.87;79.61
65394;BME280;52002;49.760;6.512;2024-02-21T02:17:01;100824.91;;;7.85;79.42
65394;BME280;52002;49.760;6.512;2024-02-21T02:19:27;100826.67;;;7.82;79.64
65394;BME280;52002;49.760;6.512;2024-02-21T02:22:22;100816.52;;;7.81;79.43
65394;BME280;52002;49.760;6.512;2024-02-21T02:24:51;100817.13;;;7.79;79.60
65394;BME280;52002;49.760;6.512;2024-02-21T02:27:16;100817.36;;;7.79;79.83
65394;BME280;52002;49.760;6.512;2024-02-21T02:29:42;100810.17;;;7.77;79.93
65394;BME280;52002;49.760;6.512;2024-02-21T02:32:07;100805.25;;;7.77;80.07
65394;BME280;52002;49.760;6.512;2024-02-21T02:34:32;100798.16;;;7.77;80.12
65394;BME280;52002;49.760;6.512;2024-02-21T02:36:58;100792.11;;;7.77;80.19
65394;BME280;52002;49.760;6.512;2024-02-21T02:39:23;100790.52;;;7.77;79.98
65394;BME280;52002;49.760;6.512;2024-02-21T02:41:48;100785.11;;;7.75;79.83
65394;BME280;52002;49.760;6.512;2024-02-21T02:44:14;100788.49;;;7.75;79.75
65394;BME280;52002;49.760;6.512;2024-02-21T02:46:42;100793.97;;;7.73;79.77
65394;BME280;52002;49.760;6.512;2024-02-21T02:49:08;100798.90;;;7.70;79.90
65394;BME280;52002;49.760;6.512;2024-02-21T02:51:33;100798.71;;;7.68;80.04
65394;BME280;52002;49.760;6.512;2024-02-21T02:53:58;100799.73;;;7.66;79.84
65394;BME280;52002;49.760;6.512;2024-02-21T02:56:24;100796.30;;;7.64;79.91
65394;BME280;52002;49.760;6.512;2024-02-21T02:58:49;100786.27;;;7.63;80.16
65394;BME280;52002;49.760;6.512;2024-02-21T03:01:14;100775.60;;;7.64;80.20
65394;BME280;52002;49.760;6.512;2024-02-21T03:03:40;100765.83;;;7.64;80.22
65394;BME280;52002;49.760;6.512;2024-02-21T03:06:05;100766.13;;;7.65;80.25
65394;BME280;52002;49.760;6.512;2024-02-21T03:08:31;100767.04;;;7.64;80.05
65394;BME280;52002;49.760;6.512;2024-02-21T03:10:58;100773.31;;;7.63;79.99
65394;BME280;52002;49.760;6.512;2024-02-21T03:13:25;100771.71;;;7.63;80.12
65394;BME280;52002;49.760;6.512;2024-02-21T03:15:50;100768.68;;;7.66;80.50
65394;BME280;52002;49.760;6.512;2024-02-21T03:18:16;100763.05;;;7.68;80.45
65394;BME280;52002;49.760;6.512;2024-02-21T03:20:41;100759.16;;;7.71;80.51
65394;BME280;52002;49.760;6.512;2024-02-21T03:23:07;100761.90;;;7.72;80.23
65394;BME280;52002;49.760;6.512;2024-02-21T03:25:32;100756.25;;;7.72;80.00
65394;BME280;52002;49.760;6.512;2024-02-21T03:27:58;100758.92;;;7.72;80.05
65394;BME280;52002;49.760;6.512;2024-02-21T03:30:23;100751.31;;;7.71;79.80
65394;BME280;52002;49.760;6.512;2024-02-21T03:32:48;100748.00;;;7.71;79.55
65394;BME280;52002;49.760;6.512;2024-02-21T03:35:14;100731.60;;;7.70;79.70
65394;BME280;52002;49.760;6.512;2024-02-21T03:37:39;100718.84;;;7.70;79.60
65394;BME280;52002;49.760;6.512;2024-02-21T03:40:09;100718.59;;;7.68;79.59
65394;BME280;52002;49.760;6.512;2024-02-21T03:42:34;100723.99;;;7.67;79.26
65394;BME280;52002;49.760;6.512;2024-02-21T03:45:00;100724.19;;;7.67;79.23
65394;BME280;52002;49.760;6.512;2024-02-21T03:47:25;100719.44;;;7.66;79.51
65394;BME280;52002;49.760;6.512;2024-02-21T03:49:50;100722.56;;;7.67;79.42
65394;BME280;52002;49.760;6.512;2024-02-21T03:52:16;100716.05;;;7.67;79.27
65394;BME280;52002;49.760;6.512;2024-02-21T03:54:42;100715.08;;;7.65;79.56
65394;BME280;52002;49.760;6.512;2024-02-21T03:57:08;100706.34;;;7.66;79.44
65394;BME280;52002;49.760;6.512;2024-02-21T03:59:33;100701.64;;;7.67;79.69
65394;BME280;52002;49.760;6.512;2024-02-21T04:01:59;100702.09;;;7.68;79.87
65394;BME280;52002;49.760;6.512;2024-02-21T04:04:25;100698.84;;;7.69;79.51
65394;BME280;52002;49.760;6.512;2024-02-21T04:06:51;100689.43;;;7.70;79.79
65394;BME280;52002;49.760;6.512;2024-02-21T04:09:17;100679.69;;;7.69;79.64
65394;BME280;52002;49.760;6.512;2024-02-21T04:11:43;100681.24;;;7.70;79.77
65394;BME280;52002;49.760;6.512;2024-02-21T04:14:08;100675.29;;;7.69;79.75
65394;BME280;52002;49.760;6.512;2024-02-21T04:16:34;100676.56;;;7.69;79.59
65394;BME280;52002;49.760;6.512;2024-02-21T04:19:00;100675.92;;;7.68;79.70
65394;BME280;52002;49.760;6.512;2024-02-21T04:21:27;100673.30;;;7.67;79.67
65394;BME280;52002;49.760;6.512;2024-02-21T04:23:52;100670.27;;;7.68;79.57
65394;BME280;52002;49.760;6.512;2024-02-21T04:26:20;100659.65;;;7.67;79.74
65394;BME280;52002;49.760;6.512;2024-02-21T04:28:46;100659.33;;;7.67;79.58
65394;BME280;52002;49.760;6.512;2024-02-21T04:31:12;100658.92;;;7.65;79.52
65394;BME280;52002;49.760;6.512;2024-02-21T04:33:37;100657.35;;;7.65;79.69
65394;BME280;52002;49.760;6.512;2024-02-21T04:36:03;100659.81;;;7.65;79.60
65394;BME280;52002;49.760;6.512;2024-02-21T04:38:28;100667.88;;;7.66;79.84
65394;BME280;52002;49.760;6.512;2024-02-21T04:40:55;100675.89;;;7.66;79.60
65394;BME280;52002;49.760;6.512;2024-02-21T04:43:24;100673.80;;;7.65;79.93
65394;BME280;52002;49.760;6.512;2024-02-21T04:45:50;100676.80;;;7.65;79.50
65394;BME280;52002;49.760;6.512;2024-02-21T04:48:16;100669.48;;;7.63;79.56
65394;BME280;52002;49.760;6.512;2024-02-21T04:50:41;100661.67;;;7.64;79.75
65394;BME280;52002;49.760;6.512;2024-02-21T04:53:07;100664.19;;;7.63;79.64
65394;BME280;52002;49.760;6.512;2024-02-21T04:55:33;100663.63;;;7.63;79.83
65394;BME280;52002;49.760;6.512;2024-02-21T04:57:58;100663.45;;;7.64;79.72
65394;BME280;52002;49.760;6.512;2024-02-21T05:00:23;100661.32;;;7.61;79.44
65394;BME280;52002;49.760;6.512;2024-02-21T05:02:49;100658.08;;;7.59;79.71
65394;BME280;52002;49.760;6.512;2024-02-21T05:05:14;100661.39;;;7.57;79.81
65394;BME280;52002;49.760;6.512;2024-02-21T05:07:42;100653.16;;;7.55;79.77
65394;BME280;52002;49.760;6.512;2024-02-21T05:10:08;100653.46;;;7.54;79.81
65394;BME280;52002;49.760;6.512;2024-02-21T05:12:34;100651.75;;;7.50;79.61
65394;BME280;52002;49.760;6.512;2024-02-21T05:15:00;100652.25;;;7.48;79.83
65394;BME280;52002;49.760;6.512;2024-02-21T05:17:25;100650.53;;;7.47;79.91
65394;BME280;52002;49.760;6.512;2024-02-21T05:19:51;100648.48;;;7.46;79.90
65394;BME280;52002;49.760;6.512;2024-02-21T05:22:16;100649.14;;;7.47;80.03
65394;BME280;52002;49.760;6.512;2024-02-21T05:24:41;100647.35;;;7.47;80.11
65394;BME280;52002;49.760;6.512;2024-02-21T05:27:07;100646.77;;;7.48;80.21
65394;BME280;52002;49.760;6.512;2024-02-21T05:29:33;100645.61;;;7.47;79.84
65394;BME280;52002;49.760;6.512;2024-02-21T05:31:59;100640.86;;;7.46;80.02
65394;BME280;52002;49.760;6.512;2024-02-21T05:34:25;100637.73;;;7.45;80.16
65394;BME280;52002;49.760;6.512;2024-02-21T05:36:51;100635.79;;;7.45;80.20
65394;BME280;52002;49.760;6.512;2024-02-21T05:39:17;100634.29;;;7.43;80.10
65394;BME280;52002;49.760;6.512;2024-02-21T05:41:43;100635.94;;;7.42;79.97
65394;BME280;52002;49.760;6.512;2024-02-21T05:44:08;100635.11;;;7.41;80.12
65394;BME280;52002;49.760;6.512;2024-02-21T05:46:34;100638.01;;;7.41;80.22
65394;BME280;52002;49.760;6.512;2024-02-21T05:49:00;100640.75;;;7.42;80.25
65394;BME280;52002;49.760;6.512;2024-02-21T05:51:26;100637.16;;;7.43;80.26
65394;BME280;52002;49.760;6.512;2024-02-21T05:53:51;100632.25;;;7.45;80.39
65394;BME280;52002;49.760;6.512;2024-02-21T05:56:16;100630.52;;;7.47;80.54
65394;BME280;52002;49.760;6.512;2024-02-21T05:58:43;100627.27;;;7.48;80.38
65394;BME280;52002;49.760;6.512;2024-02-21T06:01:10;100618.71;;;7.49;80.56
65394;BME280;52002;49.760;6.512;2024-02-21T06:03:36;100605.63;;;7.49;80.34
65394;BME280;52002;49.760;6.512;2024-02-21T06:06:02;100607.39;;;7.49;80.21
65394;BME280;52002;49.760;6.512;2024-02-21T06:08:30;100602.86;;;7.48;80.26
65394;BME280;52002;49.760;6.512;2024-02-21T06:10:55;100603.25;;;7.47;80.24
65394;BME280;52002;49.760;6.512;2024-02-21T06:13:21;100605.42;;;7.46;80.44
65394;BME280;52002;49.760;6.512;2024-02-21T06:15:47;100612.42;;;7.44;80.13
65394;BME280;52002;49.760;6.512;2024-02-21T06:18:13;100604.09;;;7.44;80.41
65394;BME280;52002;49.760;6.512;2024-02-21T06:20:38;100594.15;;;7.45;80.30
65394;BME280;52002;49.760;6.512;2024-02-21T06:23:06;100598.44;;;7.44;80.45
65394;BME280;52002;49.760;6.512;2024-02-21T06:25:32;100597.38;;;7.44;80.56
65394;BME280;52002;49.760;6.512;2024-02-21T06:27:57;100585.11;;;7.45;80.43
65394;BME280;52002;49.760;6.512;2024-02-21T06:30:22;100588.58;;;7.47;80.46
65394;BME280;52002;49.760;6.512;2024-02-21T06:32:48;100588.91;;;7.47;80.43
65394;BME280;52002;49.760;6.512;2024-02-21T06:35:13;100587.60;;;7.45;80.28
65394;BME280;52002;49.760;6.512;2024-02-21T06:37:38;100588.04;;;7.43;80.13
65394;BME280;52002;49.760;6.512;2024-02-21T06:40:05;100589.96;;;7.41;80.09
65394;BME280;52002;49.760;6.512;2024-02-21T06:42:30;100591.88;;;7.39;80.29
65394;BME280;52002;49.760;6.512;2024-02-21T06:44:56;100589.09;;;7.38;80.11
65394;BME280;52002;49.760;6.512;2024-02-21T06:47:22;100587.75;;;7.37;80.18
65394;BME280;52002;49.760;6.512;2024-02-21T06:49:51;100587.82;;;7.36;80.33
65394;BME280;52002;49.760;6.512;2024-02-21T06:52:19;100586.80;;;7.35;80.20
65394;BME280;52002;49.760;6.512;2024-02-21T06:54:49;100582.10;;;7.37;80.34
65394;BME280;52002;49.760;6.512;2024-02-21T06:57:14;100579.70;;;7.38;80.39
65394;BME280;52002;49.760;6.512;2024-02-21T06:59:41;100577.65;;;7.40;80.36
65394;BME280;52002;49.760;6.512;2024-02-21T07:02:07;100567.87;;;7.41;80.03
65394;BME280;52002;49.760;6.512;2024-02-21T07:04:33;100570.56;;;7.42;80.25
65394;BME280;52002;49.760;6.512;2024-02-21T07:06:58;100575.34;;;7.46;80.26
65394;BME280;52002;49.760;6.512;2024-02-21T07:09:24;100577.87;;;7.48;80.22
65394;BME280;52002;49.760;6.512;2024-02-21T07:11:49;100574.95;;;7.49;79.87
65394;BME280;52002;49.760;6.512;2024-02-21T07:14:15;100573.39;;;7.51;80.08
65394;BME280;52002;49.760;6.512;2024-02-21T07:16:40;100567.24;;;7.53;79.99
65394;BME280;52002;49.760;6.512;2024-02-21T07:19:06;100566.36;;;7.55;80.03
65394;BME280;52002;49.760;6.512;2024-02-21T07:21:32;100564.10;;;7.57;79.87
65394;BME280;52002;49.760;6.512;2024-02-21T07:23:58;100565.71;;;7.60;79.98
65394;BME280;52002;49.760;6.512;2024-02-21T07:26:23;100568.05;;;7.62;79.67
65394;BME280;52002;49.760;6.512;2024-02-21T07:28:49;100567.19;;;7.64;79.79
65394;BME280;52002;49.760;6.512;2024-02-21T07:31:14;100566.13;;;7.67;79.55
65394;BME280;52002;49.760;6.512;2024-02-21T07:33:40;100560.89;;;7.68;79.41
65394;BME280;52002;49.760;6.512;2024-02-21T07:36:09;100555.29;;;7.70;79.27
65394;BME280;52002;49.760;6.512;2024-02-21T07:38:35;100559.61;;;7.74;79.57
65394;BME280;52002;49.760;6.512;2024-02-21T07:41:00;100561.28;;;7.79;79.27
65394;BME280;52002;49.760;6.512;2024-02-21T07:43:25;100564.45;;;7.82;79.29
65394;BME280;52002;49.760;6.512;2024-02-21T07:45:52;100567.11;;;7.84;79.08
65394;BME280;52002;49.760;6.512;2024-02-21T07:48:18;100569.10;;;7.86;78.85
65394;BME280;52002;49.760;6.512;2024-02-21T07:50:44;100578.71;;;7.88;78.92
65394;BME280;52002;49.760;6.512;2024-02-21T07:53:10;100578.45;;;7.89;79.02
65394;BME280;52002;49.760;6.512;2024-02-21T07:55:35;100577.98;;;7.91;78.52
65394;BME280;52002;49.760;6.512;2024-02-21T07:58:00;100579.98;;;7.93;78.54
65394;BME280;52002;49.760;6.512;2024-02-21T08:00:26;100577.10;;;7.96;78.53
65394;BME280;52002;49.760;6.512;2024-02-21T08:02:51;100571.20;;;8.02;78.74
65394;BME280;52002;49.760;6.512;2024-02-21T08:05:17;100563.46;;;8.09;78.78
65394;BME280;52002;49.760;6.512;2024-02-21T08:07:43;100559.86;;;8.15;78.37
65394;BME280;52002;49.760;6.512;2024-02-21T08:10:08;100558.22;;;8.18;78.23
65394;BME280;52002;49.760;6.512;2024-02-21T08:12:34;100554.76;;;8.24;78.09
65394;BME280;52002;49.760;6.512;2024-02-21T08:15:00;100550.89;;;8.31;77.84
65394;BME280;52002;49.760;6.512;2024-02-21T08:17:26;100545.80;;;8.38;77.92
65394;BME280;52002;49.760;6.512;2024-02-21T08:19:52;100541.14;;;8.47;77.61
65394;BME280;52002;49.760;6.512;2024-02-21T08:22:17;100537.34;;;8.55;77.45
65394;BME280;52002;49.760;6.512;2024-02-21T08:24:43;100529.92;;;8.65;77.28
65394;BME280;52002;49.760;6.512;2024-02-21T08:27:08;100532.63;;;8.76;77.29
65394;BME280;52002;49.760;6.512;2024-02-21T08:29:34;100525.09;;;8.85;76.91
65394;BME280;52002;49.760;6.512;2024-02-21T08:31:59;100522.45;;;8.92;76.59
65394;BME280;52002;49.760;6.512;2024-02-21T08:34:24;100522.48;;;8.94;76.35
65394;BME280;52002;49.760;6.512;2024-02-21T08:36:51;100523.82;;;8.93;76.19
65394;BME280;52002;49.760;6.512;2024-02-21T08:39:16;100523.46;;;8.92;75.99
65394;BME280;52002;49.760;6.512;2024-02-21T08:41:42;100516.54;;;8.95;76.20
65394;BME280;52002;49.760;6.512;2024-02-21T08:44:08;100513.40;;;8.97;75.85
65394;BME280;52002;49.760;6.512;2024-02-21T08:46:33;100508.69;;;8.96;75.56
65394;BME280;52002;49.760;6.512;2024-02-21T08:48:59;100506.09;;;8.97;75.70
65394;BME280;52002;49.760;6.512;2024-02-21T08:51:24;100508.70;;;9.01;75.65
65394;BME280;52002;49.760;6.512;2024-02-21T08:53:50;100505.18;;;9.03;75.66
65394;BME280;52002;49.760;6.512;2024-02-21T08:56:17;100500.02;;;9.03;75.60
65394;BME280;52002;49.760;6.512;2024-02-21T08:58:43;100492.79;;;9.04;75.49
65394;BME280;52002;49.760;6.512;2024-02-21T09:01:09;100487.18;;;9.06;75.33
65394;BME280;52002;49.760;6.512;2024-02-21T09:03:38;100489.73;;;9.07;75.03
65394;BME280;52002;49.760;6.512;2024-02-21T09:06:07;100490.13;;;9.11;75.27
65394;BME280;52002;49.760;6.512;2024-02-21T09:08:33;100485.52;;;9.16;75.10
65394;BME280;52002;49.760;6.512;2024-02-21T09:11:02;100483.15;;;9.21;75.07
65394;BME280;52002;49.760;6.512;2024-02-21T09:13:28;100472.15;;;9.26;74.76
65394;BME280;52002;49.760;6.512;2024-02-21T09:15:54;100465.93;;;9.31;74.66
65394;BME280;52002;49.760;6.512;2024-02-21T09:18:19;100451.41;;;9.37;74.72
65394;BME280;52002;49.760;6.512;2024-02-21T09:20:45;100442.77;;;9.46;74.44
65394;BME280;52002;49.760;6.512;2024-02-21T09:23:12;100440.12;;;9.52;74.20
65394;BME280;52002;49.760;6.512;2024-02-21T09:25:37;100434.54;;;9.60;74.12
65394;BME280;52002;49.760;6.512;2024-02-21T09:28:03;100420.27;;;9.68;73.83
65394;BME280;52002;49.760;6.512;2024-02-21T09:30:31;100416.52;;;9.77;73.39
65394;BME280;52002;49.760;6.512;2024-02-21T09:32:57;100416.73;;;9.86;73.33
65394;BME280;52002;49.760;6.512;2024-02-21T09:35:25;100414.79;;;9.95;73.26
65394;BME280;52002;49.760;6.512;2024-02-21T09:37:52;100413.64;;;10.03;73.04
65394;BME280;52002;49.760;6.512;2024-02-21T09:40:17;100410.96;;;10.07;72.62
65394;BME280;52002;49.760;6.512;2024-02-21T09:42:43;100407.34;;;10.10;72.27
65394;BME280;52002;49.760;6.512;2024-02-21T09:45:23;100404.06;;;10.09;72.01
65394;BME280;52002;49.760;6.512;2024-02-21T09:50:14;100398.62;;;10.03;71.42
65394;BME280;52002;49.760;6.512;2024-02-21T09:52:41;100394.16;;;9.95;71.52
65394;BME280;52002;49.760;6.512;2024-02-21T09:55:08;100385.33;;;9.92;71.81
65394;BME280;52002;49.760;6.512;2024-02-21T09:57:38;100381.84;;;9.91;71.72
65394;BME280;52002;49.760;6.512;2024-02-21T10:00:05;100376.03;;;9.95;71.78
65394;BME280;52002;49.760;6.512;2024-02-21T10:02:33;100375.86;;;9.99;71.81
65394;BME280;52002;49.760;6.512;2024-02-21T10:04:59;100376.75;;;10.04;71.66
65394;BME280;52002;49.760;6.512;2024-02-21T10:07:24;100371.59;;;10.06;71.61
65394;BME280;52002;49.760;6.512;2024-02-21T10:10:01;100376.94;;;10.10;71.72
65394;BME280;52002;49.760;6.512;2024-02-21T10:12:26;100372.18;;;10.13;71.54
65394;BME280;52002;49.760;6.512;2024-02-21T10:15:12;100373.48;;;10.13;71.41
65394;BME280;52002;49.760;6.512;2024-02-21T10:17:37;100374.43;;;10.08;71.23
65394;BME280;52002;49.760;6.512;2024-02-21T10:20:09;100374.59;;;10.04;71.34
65394;BME280;52002;49.760;6.512;2024-02-21T10:22:35;100375.96;;;10.00;71.18
65394;BME280;52002;49.760;6.512;2024-02-21T10:25:11;100375.08;;;10.00;71.52
65394;BME280;52002;49.760;6.512;2024-02-21T10:27:38;100376.38;;;10.06;71.92
65394;BME280;52002;49.760;6.512;2024-02-21T10:30:14;100376.67;;;10.11;71.54
65394;BME280;52002;49.760;6.512;2024-02-21T10:33:09;100371.07;;;10.19;71.69
65394;BME280;52002;49.760;6.512;2024-02-21T10:35:34;100364.73;;;10.29;71.73
65394;BME280;52002;49.760;6.512;2024-02-21T10:38:00;100364.41;;;10.38;71.73
65394;BME280;52002;49.760;6.512;2024-02-21T10:40:29;100363.16;;;10.46;71.42
65394;BME280;52002;49.760;6.512;2024-02-21T10:43:05;100358.46;;;10.54;71.32
65394;BME280;52002;49.760;6.512;2024-02-21T10:45:37;100359.98;;;10.64;71.07
65394;BME280;52002;49.760;6.512;2024-02-21T10:48:13;100354.31;;;10.67;70.99
65394;BME280;52002;49.760;6.512;2024-02-21T10:51:03;100350.89;;;10.70;70.72
65394;BME280;52002;49.760;6.512;2024-02-21T10:56:31;100349.73;;;10.71;70.56
65394;BME280;52002;49.760;6.512;2024-02-21T10:59:01;100347.72;;;10.61;70.34
65394;BME280;52002;49.760;6.512;2024-02-21T11:01:28;100341.20;;;10.54;70.30
65394;BME280;52002;49.760;6.512;2024-02-21T11:03:58;100337.38;;;10.53;70.60
65394;BME280;52002;49.760;6.512;2024-02-21T11:06:26;100336.80;;;10.51;70.55
65394;BME280;52002;49.760;6.512;2024-02-21T11:09:08;100331.88;;;10.48;70.32
65394;BME280;52002;49.760;6.512;2024-02-21T11:12:02;100324.36;;;10.44;70.33
65394;BME280;52002;49.760;6.512;2024-02-21T11:14:28;100316.71;;;10.38;70.37
65394;BME280;52002;49.760;6.512;2024-02-21T11:16:57;100308.09;;;10.32;70.39
65394;BME280;52002;49.760;6.512;2024-02-21T11:19:25;100310.04;;;10.30;70.54
65394;BME280;52002;49.760;6.512;2024-02-21T11:21:52;100300.84;;;10.29;70.44
65394;BME280;52002;49.760;6.512;2024-02-21T11:24:28;100291.90;;;10.30;70.62
65394;BME280;52002;49.760;6.512;2024-02-21T11:26:54;100279.54;;;10.31;70.45
65394;BME280;52002;49.760;6.512;2024-02-21T11:29:23;100273.17;;;10.32;70.50
65394;BME280;52002;49.760;6.512;2024-02-21T11:31:50;100261.83;;;10.36;70.53
65394;BME280;52002;49.760;6.512;2024-02-21T11:34:19;100264.74;;;10.40;70.45
65394;BME280;52002;49.760;6.512;2024-02-21T11:36:52;100259.20;;;10.40;70.30
65394;BME280;52002;49.760;6.512;2024-02-21T11:39:25;100254.34;;;10.41;70.32
65394;BME280;52002;49.760;6.512;2024-02-21T11:42:04;100241.40;;;10.38;70.16
65394;BME280;52002;49.760;6.512;2024-02-21T11:44:31;100228.11;;;10.38;70.09
65394;BME280;52002;49.760;6.512;2024-02-21T11:46:57;100223.23;;;10.39;70.03
65394;BME280;52002;49.760;6.512;2024-02-21T11:49:25;100213.48;;;10.38;70.08
65394;BME280;52002;49.760;6.512;2024-02-21T11:52:02;100205.69;;;10.42;69.95
65394;BME280;52002;49.760;6.512;2024-02-21T11:54:32;100198.66;;;10.43;69.95
65394;BME280;52002;49.760;6.512;2024-02-21T11:56:58;100191.79;;;10.44;69.96
65394;BME280;52002;49.760;6.512;2024-02-21T11:59:24;100184.51;;;10.48;70.04
65394;BME280;52002;49.760;6.512;2024-02-21T12:01:50;100178.30;;;10.53;69.96
65394;BME280;52002;49.760;6.512;2024-02-21T12:04:18;100175.31;;;10.56;69.80
65394;BME280;52002;49.760;6.512;2024-02-21T12:06:49;100164.23;;;10.55;69.30
65394;BME280;52002;49.760;6.512;2024-02-21T12:09:16;100159.52;;;10.52;69.31
65394;BME280;52002;49.760;6.512;2024-02-21T12:11:42;100161.42;;;10.52;69.41
65394;BME280;52002;49.760;6.512;2024-02-21T12:14:08;100163.21;;;10.54;69.31
65394;BME280;52002;49.760;6.512;2024-02-21T12:16:34;100169.66;;;10.56;69.34
65394;BME280;52002;49.760;6.512;2024-02-21T12:19:02;100152.86;;;10.56;69.52
65394;BME280;52002;49.760;6.512;2024-02-21T12:21:33;100147.05;;;10.60;69.28
65394;BME280;52002;49.760;6.512;2024-02-21T12:24:21;100142.02;;;10.64;69.33
65394;BME280;52002;49.760;6.512;2024-02-21T12:26:48;100135.98;;;10.67;69.13
65394;BME280;52002;49.760;6.512;2024-02-21T12:29:13;100136.16;;;10.68;68.99
65394;BME280;52002;49.760;6.512;2024-02-21T12:31:39;100132.91;;;10.71;68.83
65394;BME280;52002;49.760;6.512;2024-02-21T12:34:05;100127.27;;;10.74;68.87
65394;BME280;52002;49.760;6.512;2024-02-21T12:36:33;100126.46;;;10.75;68.67
65394;BME280;52002;49.760;6.512;2024-02-21T12:38:59;100112.83;;;10.76;68.62
65394;BME280;52002;49.760;6.512;2024-02-21T12:41:27;100100.04;;;10.78;68.51
65394;BME280;52002;49.760;6.512;2024-02-21T12:43:55;100083.66;;;10.83;68.42
65394;BME280;52002;49.760;6.512;2024-02-21T12:46:21;100085.23;;;10.85;68.42
65394;BME280;52002;49.760;6.512;2024-02-21T12:48:47;100073.09;;;10.86;68.13
65394;BME280;52002;49.760;6.512;2024-02-21T12:51:13;100069.24;;;10.93;68.27
65394;BME280;52002;49.760;6.512;2024-02-21T12:53:38;100074.30;;;10.98;67.98
65394;BME280;52002;49.760;6.512;2024-02-21T12:56:05;100067.58;;;10.97;67.65
65394;BME280;52002;49.760;6.512;2024-02-21T12:58:32;100056.48;;;10.98;67.58
65394;BME280;52002;49.760;6.512;2024-02-21T13:00:58;100044.79;;;11.03;67.72